sensor_id;sensor_type;location;lat;lon;timestamp;P1;durP1;ratioP1;P2;durP2;ratioP2
5923;SDS011;2987;50.884;14.818;2022-12-07T00:01:12;1.70;;;1.60;;
5923;SDS011;2987;50.884;14.818;2022-12-07T00:03:41;2.00;;;1.90;;
5923;SDS011;2987;50.884;14.818;2022-12-07T00:06:10;2.10;;;1.90;;
5923;SDS011;2987;50.884;14.818;2022-12-07T00:08:38;2.30;;;1.70;;
5923;SDS011;2987;50.884;14.818;2022-12-07T00:11:07;2.03;;;1.83;;
5923;SDS011;2987;50.884;14.818;2022-12-07T00:13:36;2.00;;;1.53;;
5923;SDS011;2987;50.884;14.818;2022-12-07T00:16:12;1.80;;;1.70;;
5923;SDS011;2987;50.884;14.818;2022-12-07T00:18:40;2.13;;;2.00;;
5923;SDS011;2987;50.884;14.818;2022-12-07T00:21:12;2.60;;;1.80;;
5923;SDS011;2987;50.884;14.818;2022-12-07T00:23:40;2.93;;;2.20;;
5923;SDS011;2987;50.884;14.818;2022-12-07T00:26:09;1.63;;;1.53;;
5923;SDS011;2987;50.884;14.818;2022-12-07T00:28:38;1.43;;;1.33;;
5923;SDS011;2987;50.884;14.818;2022-12-07T00:31:06;1.90;;;1.60;;
5923;SDS011;2987;50.884;14.818;2022-12-07T00:33:35;1.60;;;1.50;;
5923;SDS011;2987;50.884;14.818;2022-12-07T00:36:04;1.63;;;1.53;;
5923;SDS011;2987;50.884;14.818;2022-12-07T00:38:34;2.70;;;1.53;;
5923;SDS011;2987;50.884;14.818;2022-12-07T00:41:03;1.50;;;1.40;;
5923;SDS011;2987;50.884;14.818;2022-12-07T00:43:33;1.57;;;1.47;;
5923;SDS011;2987;50.884;14.818;2022-12-07T00:45:59;1.47;;;1.47;;
5923;SDS011;2987;50.884;14.818;2022-12-07T00:48:26;1.87;;;1.70;;
5923;SDS011;2987;50.884;14.818;2022-12-07T00:50:53;2.27;;;2.03;;
5923;SDS011;2987;50.884;14.818;2022-12-07T00:53:19;2.83;;;2.50;;
5923;SDS011;2987;50.884;14.818;2022-12-07T00:55:45;2.97;;;2.67;;
5923;SDS011;2987;50.884;14.818;2022-12-07T00:58:12;5.57;;;4.07;;
5923;SDS011;2987;50.884;14.818;2022-12-07T01:00:39;4.83;;;3.57;;
5923;SDS011;2987;50.884;14.818;2022-12-07T01:03:08;7.47;;;4.77;;
5923;SDS011;2987;50.884;14.818;2022-12-07T01:05:36;5.23;;;4.10;;
5923;SDS011;2987;50.884;14.818;2022-12-07T01:08:03;6.77;;;4.53;;
5923;SDS011;2987;50.884;14.818;2022-12-07T01:10:30;6.57;;;4.40;;
5923;SDS011;2987;50.884;14.818;2022-12-07T01:12:57;4.83;;;3.73;;
5923;SDS011;2987;50.884;14.818;2022-12-07T01:15:25;6.07;;;4.57;;
5923;SDS011;2987;50.884;14.818;2022-12-07T01:17:51;7.00;;;4.80;;
5923;SDS011;2987;50.884;14.818;2022-12-07T01:20:17;9.57;;;4.53;;
5923;SDS011;2987;50.884;14.818;2022-12-07T01:22:43;5.37;;;4.23;;
5923;SDS011;2987;50.884;14.818;2022-12-07T01:25:10;6.97;;;4.40;;
5923;SDS011;2987;50.884;14.818;2022-12-07T01:27:36;6.43;;;3.97;;
5923;SDS011;2987;50.884;14.818;2022-12-07T01:30:04;6.17;;;4.77;;
5923;SDS011;2987;50.884;14.818;2022-12-07T01:32:31;7.03;;;4.33;;
5923;SDS011;2987;50.884;14.818;2022-12-07T01:34:59;6.43;;;4.50;;
5923;SDS011;2987;50.884;14.818;2022-12-07T01:37:25;6.10;;;4.23;;
5923;SDS011;2987;50.884;14.818;2022-12-07T01:39:51;6.53;;;4.43;;
5923;SDS011;2987;50.884;14.818;2022-12-07T01:42:18;5.63;;;3.87;;
5923;SDS011;2987;50.884;14.818;2022-12-07T01:47:52;6.83;;;3.43;;
5923;SDS011;2987;50.884;14.818;2022-12-07T01:50:21;4.90;;;4.13;;
5923;SDS011;2987;50.884;14.818;2022-12-07T01:57:45;7.73;;;5.43;;
5923;SDS011;2987;50.884;14.818;2022-12-07T02:00:16;9.87;;;6.47;;
5923;SDS011;2987;50.884;14.818;2022-12-07T02:02:45;7.37;;;6.27;;
5923;SDS011;2987;50.884;14.818;2022-12-07T02:05:17;9.90;;;7.00;;
5923;SDS011;2987;50.884;14.818;2022-12-07T02:07:44;11.50;;;7.63;;
5923;SDS011;2987;50.884;14.818;2022-12-07T02:10:15;11.57;;;8.30;;
5923;SDS011;2987;50.884;14.818;2022-12-07T02:12:44;14.30;;;9.13;;
5923;SDS011;2987;50.884;14.818;2022-12-07T02:15:14;11.90;;;8.60;;
5923;SDS011;2987;50.884;14.818;2022-12-07T02:31:36;16.63;;;10.50;;
5923;SDS011;2987;50.884;14.818;2022-12-07T02:36:42;17.23;;;10.80;;
5923;SDS011;2987;50.884;14.818;2022-12-07T02:39:17;14.87;;;10.07;;
5923;SDS011;2987;50.884;14.818;2022-12-07T02:41:52;13.27;;;9.70;;
5923;SDS011;2987;50.884;14.818;2022-12-07T02:44:24;14.93;;;10.17;;
5923;SDS011;2987;50.884;14.818;2022-12-07T02:47:09;14.17;;;10.17;;
5923;SDS011;2987;50.884;14.818;2022-12-07T02:49:41;13.80;;;10.40;;
5923;SDS011;2987;50.884;14.818;2022-12-07T02:52:08;16.33;;;10.67;;
5923;SDS011;2987;50.884;14.818;2022-12-07T02:54:34;13.43;;;9.57;;
5923;SDS011;2987;50.884;14.818;2022-12-07T02:57:03;12.77;;;10.20;;
5923;SDS011;2987;50.884;14.818;2022-12-07T03:00:03;15.70;;;10.67;;
5923;SDS011;2987;50.884;14.818;2022-12-07T03:02:42;15.23;;;10.67;;
5923;SDS011;2987;50.884;14.818;2022-12-07T03:16:09;15.87;;;11.53;;
5923;SDS011;2987;50.884;14.818;2022-12-07T03:18:44;13.97;;;10.43;;
5923;SDS011;2987;50.884;14.818;2022-12-07T03:23:48;13.47;;;10.10;;
5923;SDS011;2987;50.884;14.818;2022-12-07T03:26:19;14.33;;;10.87;;
5923;SDS011;2987;50.884;14.818;2022-12-07T03:28:52;14.77;;;10.60;;
5923;SDS011;2987;50.884;14.818;2022-12-07T03:31:26;15.10;;;11.03;;
5923;SDS011;2987;50.884;14.818;2022-12-07T03:34:02;15.00;;;10.30;;
5923;SDS011;2987;50.884;14.818;2022-12-07T03:36:40;14.70;;;11.57;;
5923;SDS011;2987;50.884;14.818;2022-12-07T03:39:17;17.33;;;11.77;;
5923;SDS011;2987;50.884;14.818;2022-12-07T03:41:51;15.80;;;11.67;;
5923;SDS011;2987;50.884;14.818;2022-12-07T03:44:18;18.50;;;11.97;;
5923;SDS011;2987;50.884;14.818;2022-12-07T03:57:56;16.17;;;12.27;;
5923;SDS011;2987;50.884;14.818;2022-12-07T04:05:20;17.30;;;12.20;;
5923;SDS011;2987;50.884;14.818;2022-12-07T04:07:46;17.57;;;12.03;;
5923;SDS011;2987;50.884;14.818;2022-12-07T04:10:13;16.53;;;11.93;;
5923;SDS011;2987;50.884;14.818;2022-12-07T04:12:39;15.90;;;11.33;;
5923;SDS011;2987;50.884;14.818;2022-12-07T04:15:05;18.63;;;13.13;;
5923;SDS011;2987;50.884;14.818;2022-12-07T04:17:33;17.37;;;12.23;;
5923;SDS011;2987;50.884;14.818;2022-12-07T04:20:00;17.77;;;12.03;;
5923;SDS011;2987;50.884;14.818;2022-12-07T04:22:26;16.53;;;12.07;;
5923;SDS011;2987;50.884;14.818;2022-12-07T04:24:52;14.73;;;9.93;;
5923;SDS011;2987;50.884;14.818;2022-12-07T04:27:18;13.47;;;9.33;;
5923;SDS011;2987;50.884;14.818;2022-12-07T04:29:44;13.60;;;8.87;;
5923;SDS011;2987;50.884;14.818;2022-12-07T04:32:10;10.73;;;8.37;;
5923;SDS011;2987;50.884;14.818;2022-12-07T04:34:36;12.07;;;8.60;;
5923;SDS011;2987;50.884;14.818;2022-12-07T04:37:02;8.80;;;7.17;;
5923;SDS011;2987;50.884;14.818;2022-12-07T04:39:29;8.23;;;6.70;;
5923;SDS011;2987;50.884;14.818;2022-12-07T04:41:58;7.70;;;6.43;;
5923;SDS011;2987;50.884;14.818;2022-12-07T04:44:26;8.90;;;7.17;;
5923;SDS011;2987;50.884;14.818;2022-12-07T04:46:53;7.53;;;6.43;;
5923;SDS011;2987;50.884;14.818;2022-12-07T04:49:20;9.77;;;6.40;;
5923;SDS011;2987;50.884;14.818;2022-12-07T04:51:47;9.90;;;7.70;;
5923;SDS011;2987;50.884;14.818;2022-12-07T04:54:13;8.50;;;7.27;;
5923;SDS011;2987;50.884;14.818;2022-12-07T04:56:40;9.57;;;7.67;;
5923;SDS011;2987;50.884;14.818;2022-12-07T04:59:07;8.90;;;7.13;;
5923;SDS011;2987;50.884;14.818;2022-12-07T05:01:36;8.53;;;7.30;;
5923;SDS011;2987;50.884;14.818;2022-12-07T05:04:02;9.90;;;6.90;;
5923;SDS011;2987;50.884;14.818;2022-12-07T05:06:28;7.97;;;6.87;;
5923;SDS011;2987;50.884;14.818;2022-12-07T05:08:54;10.13;;;7.80;;
5923;SDS011;2987;50.884;14.818;2022-12-07T05:11:20;9.50;;;7.67;;
5923;SDS011;2987;50.884;14.818;2022-12-07T05:14:11;10.97;;;8.70;;
5923;SDS011;2987;50.884;14.818;2022-12-07T05:16:39;11.47;;;8.93;;
5923;SDS011;2987;50.884;14.818;2022-12-07T05:19:07;13.67;;;9.57;;
5923;SDS011;2987;50.884;14.818;2022-12-07T05:21:34;10.93;;;8.73;;
5923;SDS011;2987;50.884;14.818;2022-12-07T05:24:01;12.70;;;8.87;;
5923;SDS011;2987;50.884;14.818;2022-12-07T05:26:28;11.37;;;8.37;;
5923;SDS011;2987;50.884;14.818;2022-12-07T05:28:55;10.83;;;8.10;;
5923;SDS011;2987;50.884;14.818;2022-12-07T05:31:22;10.97;;;7.93;;
5923;SDS011;2987;50.884;14.818;2022-12-07T05:33:50;11.63;;;8.10;;
5923;SDS011;2987;50.884;14.818;2022-12-07T05:36:16;9.83;;;7.70;;
5923;SDS011;2987;50.884;14.818;2022-12-07T05:38:42;9.77;;;7.03;;
5923;SDS011;2987;50.884;14.818;2022-12-07T05:41:09;9.20;;;7.60;;
5923;SDS011;2987;50.884;14.818;2022-12-07T05:44:01;9.53;;;7.73;;
5923;SDS011;2987;50.884;14.818;2022-12-07T05:46:27;8.33;;;6.90;;
5923;SDS011;2987;50.884;14.818;2022-12-07T05:48:53;8.70;;;7.17;;
5923;SDS011;2987;50.884;14.818;2022-12-07T05:51:20;9.43;;;6.73;;
5923;SDS011;2987;50.884;14.818;2022-12-07T05:53:46;11.43;;;7.90;;
5923;SDS011;2987;50.884;14.818;2022-12-07T05:56:12;8.50;;;7.00;;
5923;SDS011;2987;50.884;14.818;2022-12-07T05:58:39;9.07;;;7.03;;
5923;SDS011;2987;50.884;14.818;2022-12-07T06:01:25;9.70;;;7.23;;
5923;SDS011;2987;50.884;14.818;2022-12-07T06:03:51;7.50;;;6.33;;
5923;SDS011;2987;50.884;14.818;2022-12-07T06:06:18;10.03;;;7.30;;
5923;SDS011;2987;50.884;14.818;2022-12-07T06:08:44;8.57;;;6.90;;
5923;SDS011;2987;50.884;14.818;2022-12-07T06:11:10;9.97;;;8.07;;
5923;SDS011;2987;50.884;14.818;2022-12-07T06:13:56;12.13;;;6.80;;
5923;SDS011;2987;50.884;14.818;2022-12-07T06:16:22;8.60;;;6.57;;
5923;SDS011;2987;50.884;14.818;2022-12-07T06:18:48;9.57;;;6.83;;
5923;SDS011;2987;50.884;14.818;2022-12-07T06:21:14;17.77;;;7.80;;
5923;SDS011;2987;50.884;14.818;2022-12-07T06:23:41;11.27;;;8.23;;
5923;SDS011;2987;50.884;14.818;2022-12-07T06:26:07;12.53;;;8.57;;
5923;SDS011;2987;50.884;14.818;2022-12-07T06:28:33;14.03;;;8.07;;
5923;SDS011;2987;50.884;14.818;2022-12-07T06:30:59;14.33;;;8.10;;
5923;SDS011;2987;50.884;14.818;2022-12-07T06:33:27;13.53;;;7.87;;
5923;SDS011;2987;50.884;14.818;2022-12-07T06:35:54;9.70;;;7.67;;
5923;SDS011;2987;50.884;14.818;2022-12-07T06:38:21;10.50;;;7.87;;
5923;SDS011;2987;50.884;14.818;2022-12-07T06:40:47;9.47;;;7.60;;
5923;SDS011;2987;50.884;14.818;2022-12-07T06:43:13;9.47;;;7.43;;
5923;SDS011;2987;50.884;14.818;2022-12-07T06:45:40;8.23;;;7.23;;
5923;SDS011;2987;50.884;14.818;2022-12-07T06:48:07;10.77;;;7.13;;
5923;SDS011;2987;50.884;14.818;2022-12-07T06:50:33;9.23;;;7.30;;
5923;SDS011;2987;50.884;14.818;2022-12-07T06:53:00;9.40;;;7.37;;
5923;SDS011;2987;50.884;14.818;2022-12-07T06:55:26;9.13;;;7.03;;
5923;SDS011;2987;50.884;14.818;2022-12-07T06:57:52;10.97;;;7.80;;
5923;SDS011;2987;50.884;14.818;2022-12-07T07:00:18;11.60;;;7.73;;
5923;SDS011;2987;50.884;14.818;2022-12-07T07:02:45;8.73;;;7.07;;
5923;SDS011;2987;50.884;14.818;2022-12-07T07:05:10;10.13;;;7.57;;
5923;SDS011;2987;50.884;14.818;2022-12-07T07:07:37;8.87;;;6.90;;
5923;SDS011;2987;50.884;14.818;2022-12-07T07:10:03;9.23;;;7.77;;
5923;SDS011;2987;50.884;14.818;2022-12-07T07:12:30;9.67;;;7.17;;
5923;SDS011;2987;50.884;14.818;2022-12-07T07:14:55;9.87;;;7.33;;
5923;SDS011;2987;50.884;14.818;2022-12-07T07:17:22;13.27;;;7.73;;
5923;SDS011;2987;50.884;14.818;2022-12-07T07:19:48;10.63;;;7.67;;
5923;SDS011;2987;50.884;14.818;2022-12-07T07:22:14;10.90;;;7.27;;
5923;SDS011;2987;50.884;14.818;2022-12-07T07:24:40;8.93;;;7.20;;
5923;SDS011;2987;50.884;14.818;2022-12-07T07:27:06;12.43;;;7.83;;
5923;SDS011;2987;50.884;14.818;2022-12-07T07:29:32;9.43;;;7.10;;
5923;SDS011;2987;50.884;14.818;2022-12-07T07:31:59;11.03;;;7.80;;
5923;SDS011;2987;50.884;14.818;2022-12-07T07:34:26;26.47;;;9.73;;
5923;SDS011;2987;50.884;14.818;2022-12-07T07:36:53;10.93;;;7.23;;
5923;SDS011;2987;50.884;14.818;2022-12-07T07:39:18;9.43;;;7.23;;
5923;SDS011;2987;50.884;14.818;2022-12-07T07:41:45;9.57;;;7.60;;
5923;SDS011;2987;50.884;14.818;2022-12-07T07:44:18;13.13;;;7.53;;
5923;SDS011;2987;50.884;14.818;2022-12-07T07:46:44;10.60;;;7.47;;
5923;SDS011;2987;50.884;14.818;2022-12-07T07:49:10;9.00;;;6.70;;
5923;SDS011;2987;50.884;14.818;2022-12-07T07:51:36;9.43;;;7.07;;
5923;SDS011;2987;50.884;14.818;2022-12-07T07:54:03;11.57;;;7.53;;
5923;SDS011;2987;50.884;14.818;2022-12-07T07:56:29;12.87;;;7.90;;
5923;SDS011;2987;50.884;14.818;2022-12-07T07:58:55;10.20;;;7.43;;
5923;SDS011;2987;50.884;14.818;2022-12-07T08:01:21;11.27;;;7.73;;
5923;SDS011;2987;50.884;14.818;2022-12-07T08:03:47;11.80;;;7.83;;
5923;SDS011;2987;50.884;14.818;2022-12-07T08:06:14;10.37;;;8.00;;
5923;SDS011;2987;50.884;14.818;2022-12-07T08:08:40;12.23;;;7.93;;
5923;SDS011;2987;50.884;14.818;2022-12-07T08:11:07;10.23;;;7.43;;
5923;SDS011;2987;50.884;14.818;2022-12-07T08:13:35;11.13;;;7.87;;
5923;SDS011;2987;50.884;14.818;2022-12-07T08:16:03;10.90;;;8.00;;
5923;SDS011;2987;50.884;14.818;2022-12-07T08:18:34;12.43;;;7.73;;
5923;SDS011;2987;50.884;14.818;2022-12-07T08:21:02;9.67;;;7.30;;
5923;SDS011;2987;50.884;14.818;2022-12-07T08:23:29;9.20;;;7.13;;
5923;SDS011;2987;50.884;14.818;2022-12-07T08:26:00;10.63;;;7.80;;
5923;SDS011;2987;50.884;14.818;2022-12-07T08:28:28;11.63;;;7.47;;
5923;SDS011;2987;50.884;14.818;2022-12-07T08:30:58;7.97;;;6.87;;
5923;SDS011;2987;50.884;14.818;2022-12-07T08:33:27;7.97;;;5.83;;
5923;SDS011;2987;50.884;14.818;2022-12-07T08:35:53;9.17;;;5.93;;
5923;SDS011;2987;50.884;14.818;2022-12-07T08:38:19;6.77;;;6.00;;
5923;SDS011;2987;50.884;14.818;2022-12-07T08:40:53;9.30;;;6.47;;
5923;SDS011;2987;50.884;14.818;2022-12-07T08:43:21;6.77;;;5.53;;
5923;SDS011;2987;50.884;14.818;2022-12-07T08:45:49;9.37;;;6.23;;
5923;SDS011;2987;50.884;14.818;2022-12-07T08:48:39;9.43;;;5.90;;
5923;SDS011;2987;50.884;14.818;2022-12-07T08:51:12;7.37;;;6.00;;
5923;SDS011;2987;50.884;14.818;2022-12-07T08:53:39;16.37;;;6.40;;
5923;SDS011;2987;50.884;14.818;2022-12-07T08:56:06;8.47;;;6.07;;
5923;SDS011;2987;50.884;14.818;2022-12-07T08:58:33;9.30;;;6.77;;
5923;SDS011;2987;50.884;14.818;2022-12-07T09:01:01;17.73;;;6.30;;
5923;SDS011;2987;50.884;14.818;2022-12-07T09:03:27;12.73;;;6.53;;
5923;SDS011;2987;50.884;14.818;2022-12-07T09:05:53;14.13;;;6.97;;
5923;SDS011;2987;50.884;14.818;2022-12-07T09:08:20;8.17;;;6.43;;
5923;SDS011;2987;50.884;14.818;2022-12-07T09:10:48;10.00;;;5.77;;
5923;SDS011;2987;50.884;14.818;2022-12-07T09:13:14;13.17;;;6.40;;
5923;SDS011;2987;50.884;14.818;2022-12-07T09:15:40;11.17;;;6.60;;
5923;SDS011;2987;50.884;14.818;2022-12-07T09:18:06;11.10;;;6.73;;
5923;SDS011;2987;50.884;14.818;2022-12-07T09:20:32;11.43;;;6.93;;
5923;SDS011;2987;50.884;14.818;2022-12-07T09:22:59;11.00;;;6.80;;
5923;SDS011;2987;50.884;14.818;2022-12-07T09:25:25;10.97;;;6.77;;
5923;SDS011;2987;50.884;14.818;2022-12-07T09:27:55;9.37;;;6.70;;
5923;SDS011;2987;50.884;14.818;2022-12-07T09:30:23;9.30;;;6.77;;
5923;SDS011;2987;50.884;14.818;2022-12-07T09:32:50;8.73;;;5.73;;
5923;SDS011;2987;50.884;14.818;2022-12-07T09:35:20;6.77;;;4.77;;
5923;SDS011;2987;50.884;14.818;2022-12-07T09:37:46;7.63;;;5.10;;
5923;SDS011;2987;50.884;14.818;2022-12-07T09:40:13;6.93;;;5.13;;
5923;SDS011;2987;50.884;14.818;2022-12-07T09:42:43;7.43;;;6.00;;
5923;SDS011;2987;50.884;14.818;2022-12-07T09:45:17;5.73;;;4.70;;
5923;SDS011;2987;50.884;14.818;2022-12-07T09:47:48;6.47;;;5.17;;
5923;SDS011;2987;50.884;14.818;2022-12-07T09:50:16;7.97;;;4.97;;
5923;SDS011;2987;50.884;14.818;2022-12-07T09:52:47;7.97;;;5.27;;
5923;SDS011;2987;50.884;14.818;2022-12-07T09:55:15;9.97;;;5.27;;
5923;SDS011;2987;50.884;14.818;2022-12-07T09:57:45;6.57;;;5.10;;
5923;SDS011;2987;50.884;14.818;2022-12-07T10:00:12;7.70;;;5.33;;
5923;SDS011;2987;50.884;14.818;2022-12-07T10:02:42;5.60;;;4.57;;
5923;SDS011;2987;50.884;14.818;2022-12-07T10:05:14;7.67;;;5.13;;
5923;SDS011;2987;50.884;14.818;2022-12-07T10:13:15;7.50;;;5.77;;
5923;SDS011;2987;50.884;14.818;2022-12-07T10:15:54;8.60;;;5.30;;
5923;SDS011;2987;50.884;14.818;2022-12-07T10:18:27;7.87;;;5.10;;
5923;SDS011;2987;50.884;14.818;2022-12-07T10:21:14;5.30;;;4.70;;
5923;SDS011;2987;50.884;14.818;2022-12-07T10:23:59;6.53;;;4.50;;
5923;SDS011;2987;50.884;14.818;2022-12-07T10:26:35;5.70;;;5.03;;
5923;SDS011;2987;50.884;14.818;2022-12-07T10:29:14;7.30;;;5.17;;
5923;SDS011;2987;50.884;14.818;2022-12-07T10:31:54;8.93;;;5.60;;
5923;SDS011;2987;50.884;14.818;2022-12-07T10:34:26;6.47;;;4.90;;
5923;SDS011;2987;50.884;14.818;2022-12-07T10:37:06;5.73;;;4.83;;
5923;SDS011;2987;50.884;14.818;2022-12-07T10:39:47;5.37;;;4.83;;
5923;SDS011;2987;50.884;14.818;2022-12-07T10:42:19;7.93;;;4.73;;
5923;SDS011;2987;50.884;14.818;2022-12-07T10:44:49;8.30;;;5.47;;
5923;SDS011;2987;50.884;14.818;2022-12-07T10:47:44;7.40;;;5.03;;
5923;SDS011;2987;50.884;14.818;2022-12-07T10:50:40;7.70;;;5.23;;
5923;SDS011;2987;50.884;14.818;2022-12-07T10:56:08;6.43;;;4.63;;
5923;SDS011;2987;50.884;14.818;2022-12-07T11:12:35;6.33;;;4.03;;
5923;SDS011;2987;50.884;14.818;2022-12-07T11:15:17;7.80;;;4.27;;
5923;SDS011;2987;50.884;14.818;2022-12-07T11:23:46;5.87;;;4.33;;
5923;SDS011;2987;50.884;14.818;2022-12-07T11:31:34;5.57;;;4.37;;
5923;SDS011;2987;50.884;14.818;2022-12-07T11:34:20;6.87;;;4.33;;
5923;SDS011;2987;50.884;14.818;2022-12-07T11:41:52;6.63;;;4.07;;
5923;SDS011;2987;50.884;14.818;2022-12-07T11:50:14;9.27;;;4.27;;
5923;SDS011;2987;50.884;14.818;2022-12-07T11:55:42;5.67;;;3.90;;
5923;SDS011;2987;50.884;14.818;2022-12-07T12:01:21;8.33;;;4.00;;
5923;SDS011;2987;50.884;14.818;2022-12-07T12:06:52;4.77;;;3.90;;
5923;SDS011;2987;50.884;14.818;2022-12-07T12:09:27;4.73;;;3.40;;
5923;SDS011;2987;50.884;14.818;2022-12-07T12:14:46;3.80;;;2.87;;
5923;SDS011;2987;50.884;14.818;2022-12-07T12:23:07;3.77;;;3.37;;
5923;SDS011;2987;50.884;14.818;2022-12-07T12:28:24;5.23;;;3.60;;
5923;SDS011;2987;50.884;14.818;2022-12-07T12:33:55;8.70;;;3.80;;
5923;SDS011;2987;50.884;14.818;2022-12-07T12:36:26;10.03;;;3.60;;
5923;SDS011;2987;50.884;14.818;2022-12-07T12:41:51;7.83;;;3.57;;
5923;SDS011;2987;50.884;14.818;2022-12-07T12:44:39;6.07;;;3.57;;
5923;SDS011;2987;50.884;14.818;2022-12-07T12:52:51;4.93;;;2.97;;
5923;SDS011;2987;50.884;14.818;2022-12-07T13:00:45;7.07;;;3.97;;
5923;SDS011;2987;50.884;14.818;2022-12-07T13:03:29;8.90;;;4.00;;
5923;SDS011;2987;50.884;14.818;2022-12-07T13:08:45;5.87;;;4.00;;
5923;SDS011;2987;50.884;14.818;2022-12-07T13:11:17;4.43;;;3.40;;
5923;SDS011;2987;50.884;14.818;2022-12-07T13:27:54;4.40;;;3.10;;
5923;SDS011;2987;50.884;14.818;2022-12-07T13:35:35;7.73;;;4.00;;
5923;SDS011;2987;50.884;14.818;2022-12-07T13:38:05;6.77;;;4.40;;
5923;SDS011;2987;50.884;14.818;2022-12-07T13:45:57;6.90;;;4.70;;
5923;SDS011;2987;50.884;14.818;2022-12-07T13:48:29;5.97;;;4.40;;
5923;SDS011;2987;50.884;14.818;2022-12-07T13:51:01;5.03;;;4.30;;
5923;SDS011;2987;50.884;14.818;2022-12-07T13:53:29;3.77;;;3.33;;
5923;SDS011;2987;50.884;14.818;2022-12-07T13:55:56;3.73;;;3.20;;
5923;SDS011;2987;50.884;14.818;2022-12-07T13:58:24;4.37;;;3.53;;
5923;SDS011;2987;50.884;14.818;2022-12-07T14:00:52;6.23;;;3.80;;
5923;SDS011;2987;50.884;14.818;2022-12-07T14:03:23;3.87;;;3.43;;
5923;SDS011;2987;50.884;14.818;2022-12-07T14:11:12;5.07;;;4.30;;
5923;SDS011;2987;50.884;14.818;2022-12-07T14:19:03;4.73;;;4.20;;
5923;SDS011;2987;50.884;14.818;2022-12-07T14:21:32;6.20;;;4.70;;
5923;SDS011;2987;50.884;14.818;2022-12-07T14:24:08;6.20;;;5.07;;
5923;SDS011;2987;50.884;14.818;2022-12-07T14:29:30;8.87;;;5.30;;
5923;SDS011;2987;50.884;14.818;2022-12-07T14:32:04;8.63;;;6.10;;
5923;SDS011;2987;50.884;14.818;2022-12-07T14:34:57;6.10;;;5.27;;
5923;SDS011;2987;50.884;14.818;2022-12-07T14:37:34;7.77;;;4.70;;
5923;SDS011;2987;50.884;14.818;2022-12-07T14:40:00;5.77;;;4.37;;
5923;SDS011;2987;50.884;14.818;2022-12-07T14:42:28;5.43;;;4.07;;
5923;SDS011;2987;50.884;14.818;2022-12-07T14:44:56;4.33;;;3.90;;
5923;SDS011;2987;50.884;14.818;2022-12-07T14:47:24;4.20;;;3.77;;
5923;SDS011;2987;50.884;14.818;2022-12-07T14:49:52;2.80;;;2.60;;
5923;SDS011;2987;50.884;14.818;2022-12-07T14:52:19;3.40;;;2.70;;
5923;SDS011;2987;50.884;14.818;2022-12-07T14:54:53;2.40;;;2.20;;
5923;SDS011;2987;50.884;14.818;2022-12-07T14:57:19;2.60;;;2.00;;
5923;SDS011;2987;50.884;14.818;2022-12-07T14:59:45;2.63;;;2.00;;
5923;SDS011;2987;50.884;14.818;2022-12-07T15:02:12;2.17;;;1.90;;
5923;SDS011;2987;50.884;14.818;2022-12-07T15:04:40;2.30;;;2.20;;
5923;SDS011;2987;50.884;14.818;2022-12-07T15:07:09;2.33;;;2.17;;
5923;SDS011;2987;50.884;14.818;2022-12-07T15:09:45;2.90;;;2.70;;
5923;SDS011;2987;50.884;14.818;2022-12-07T15:12:12;3.23;;;2.80;;
5923;SDS011;2987;50.884;14.818;2022-12-07T15:14:38;3.10;;;2.80;;
5923;SDS011;2987;50.884;14.818;2022-12-07T15:17:04;3.20;;;2.90;;
5923;SDS011;2987;50.884;14.818;2022-12-07T15:19:31;3.00;;;2.70;;
5923;SDS011;2987;50.884;14.818;2022-12-07T15:21:58;3.00;;;2.70;;
5923;SDS011;2987;50.884;14.818;2022-12-07T15:24:25;2.30;;;2.20;;
5923;SDS011;2987;50.884;14.818;2022-12-07T15:26:52;2.27;;;2.17;;
5923;SDS011;2987;50.884;14.818;2022-12-07T15:29:18;2.57;;;2.10;;
5923;SDS011;2987;50.884;14.818;2022-12-07T15:31:44;3.73;;;2.00;;
5923;SDS011;2987;50.884;14.818;2022-12-07T15:34:11;3.30;;;2.40;;
5923;SDS011;2987;50.884;14.818;2022-12-07T15:36:37;4.13;;;2.80;;
5923;SDS011;2987;50.884;14.818;2022-12-07T15:39:03;3.00;;;2.70;;
5923;SDS011;2987;50.884;14.818;2022-12-07T15:41:29;3.47;;;3.03;;
5923;SDS011;2987;50.884;14.818;2022-12-07T15:43:56;2.90;;;2.70;;
5923;SDS011;2987;50.884;14.818;2022-12-07T15:46:42;3.70;;;2.90;;
5923;SDS011;2987;50.884;14.818;2022-12-07T15:49:16;3.80;;;2.87;;
5923;SDS011;2987;50.884;14.818;2022-12-07T15:51:44;3.37;;;3.07;;
5923;SDS011;2987;50.884;14.818;2022-12-07T15:54:17;3.77;;;3.20;;
5923;SDS011;2987;50.884;14.818;2022-12-07T15:56:46;3.13;;;2.93;;
5923;SDS011;2987;50.884;14.818;2022-12-07T15:59:13;4.07;;;3.27;;
5923;SDS011;2987;50.884;14.818;2022-12-07T16:01:39;7.43;;;3.40;;
5923;SDS011;2987;50.884;14.818;2022-12-07T16:04:05;3.73;;;3.43;;
5923;SDS011;2987;50.884;14.818;2022-12-07T16:06:31;4.63;;;3.80;;
5923;SDS011;2987;50.884;14.818;2022-12-07T16:08:58;8.83;;;4.13;;
5923;SDS011;2987;50.884;14.818;2022-12-07T16:11:24;5.67;;;4.13;;
5923;SDS011;2987;50.884;14.818;2022-12-07T16:13:50;5.13;;;4.43;;
5923;SDS011;2987;50.884;14.818;2022-12-07T16:16:17;7.77;;;4.20;;
5923;SDS011;2987;50.884;14.818;2022-12-07T16:18:44;5.50;;;4.53;;
5923;SDS011;2987;50.884;14.818;2022-12-07T16:21:12;6.60;;;4.77;;
5923;SDS011;2987;50.884;14.818;2022-12-07T16:23:39;7.57;;;5.60;;
5923;SDS011;2987;50.884;14.818;2022-12-07T16:26:07;9.97;;;5.60;;
5923;SDS011;2987;50.884;14.818;2022-12-07T16:28:36;6.37;;;5.63;;
5923;SDS011;2987;50.884;14.818;2022-12-07T16:31:03;8.73;;;6.00;;
5923;SDS011;2987;50.884;14.818;2022-12-07T16:33:34;8.87;;;6.13;;
5923;SDS011;2987;50.884;14.818;2022-12-07T16:36:00;10.97;;;7.40;;
5923;SDS011;2987;50.884;14.818;2022-12-07T16:38:28;12.47;;;7.93;;
5923;SDS011;2987;50.884;14.818;2022-12-07T16:40:54;13.13;;;7.93;;
5923;SDS011;2987;50.884;14.818;2022-12-07T16:43:21;10.63;;;8.40;;
5923;SDS011;2987;50.884;14.818;2022-12-07T16:45:47;10.63;;;7.97;;
5923;SDS011;2987;50.884;14.818;2022-12-07T16:48:14;9.30;;;7.30;;
5923;SDS011;2987;50.884;14.818;2022-12-07T16:50:42;9.30;;;7.37;;
5923;SDS011;2987;50.884;14.818;2022-12-07T16:53:09;15.43;;;9.27;;
5923;SDS011;2987;50.884;14.818;2022-12-07T16:55:37;12.10;;;8.67;;
5923;SDS011;2987;50.884;14.818;2022-12-07T16:58:05;12.73;;;8.67;;
5923;SDS011;2987;50.884;14.818;2022-12-07T17:00:32;11.80;;;7.57;;
5923;SDS011;2987;50.884;14.818;2022-12-07T17:02:58;11.43;;;6.70;;
5923;SDS011;2987;50.884;14.818;2022-12-07T17:05:25;7.70;;;6.07;;
5923;SDS011;2987;50.884;14.818;2022-12-07T17:07:53;7.83;;;6.03;;
5923;SDS011;2987;50.884;14.818;2022-12-07T17:10:20;8.73;;;5.73;;
5923;SDS011;2987;50.884;14.818;2022-12-07T17:12:46;6.57;;;4.37;;
5923;SDS011;2987;50.884;14.818;2022-12-07T17:15:13;5.00;;;3.30;;
5923;SDS011;2987;50.884;14.818;2022-12-07T17:17:44;5.50;;;3.83;;
5923;SDS011;2987;50.884;14.818;2022-12-07T17:20:17;4.97;;;3.73;;
5923;SDS011;2987;50.884;14.818;2022-12-07T17:22:45;4.77;;;4.27;;
5923;SDS011;2987;50.884;14.818;2022-12-07T17:25:12;4.93;;;4.43;;
5923;SDS011;2987;50.884;14.818;2022-12-07T17:27:39;6.50;;;5.33;;
5923;SDS011;2987;50.884;14.818;2022-12-07T17:30:06;6.80;;;6.07;;
5923;SDS011;2987;50.884;14.818;2022-12-07T17:32:33;7.60;;;5.80;;
5923;SDS011;2987;50.884;14.818;2022-12-07T17:34:59;7.03;;;6.30;;
5923;SDS011;2987;50.884;14.818;2022-12-07T17:37:29;7.13;;;5.57;;
5923;SDS011;2987;50.884;14.818;2022-12-07T17:39:57;6.13;;;5.37;;
5923;SDS011;2987;50.884;14.818;2022-12-07T17:42:24;5.13;;;4.63;;
5923;SDS011;2987;50.884;14.818;2022-12-07T17:45:11;4.60;;;4.20;;
5923;SDS011;2987;50.884;14.818;2022-12-07T17:47:37;7.17;;;4.67;;
5923;SDS011;2987;50.884;14.818;2022-12-07T17:50:04;6.10;;;4.27;;
5923;SDS011;2987;50.884;14.818;2022-12-07T17:52:31;5.23;;;4.40;;
5923;SDS011;2987;50.884;14.818;2022-12-07T17:55:18;5.30;;;4.80;;
5923;SDS011;2987;50.884;14.818;2022-12-07T17:57:44;6.43;;;5.20;;
5923;SDS011;2987;50.884;14.818;2022-12-07T18:00:11;5.73;;;4.50;;
5923;SDS011;2987;50.884;14.818;2022-12-07T18:02:37;5.03;;;4.53;;
5923;SDS011;2987;50.884;14.818;2022-12-07T18:05:04;9.07;;;6.03;;